Airfield :
LOGIN :

Register | Disclaimer

   EN    FR    IT 

 










Legend :    VFR   Marginal VFR   IFR   Intensive IFR   Very Intensive IFR
Visi :
Ceiling :
>= 8 km
>= 3000ft
5 to 8 km
1000 to 3000 ft
1500m to 5 km
500 to 1000 ft
800 to 1500m
200 to 500 ft
< 800m
< 200 ft
Symbols :   Thunderstorms  Fog  Heavy snow  Heavy precipitations  Wind > 20 kt
SIGMETs :     Misc.  Thunderstorms  Icing  Turbulence  Mountain Waves  Volcanic Ashes






- Airport Elevation : 1585 ft
- IATA code : SIR


LSGS - Sion

CURRENT METAR :
  • 060550Z 06003KT CAVOK 06/M03 Q1024

EXPIRED METARs :
  • 060520Z 08006KT CAVOK 05/M02 Q1024
  • 060450Z VRB03KT CAVOK 06/M03 Q1024
  • 060420Z AUTO 09005KT CAVOK 07/M03 Q1023
  • 060350Z AUTO 09004KT 070V140 CAVOK 05/M03 Q1023

TAF TAF LSGS
Valid from the 06 at 06:00 until the 06 at 15:00 UTC


060525Z 0606/0615 VRB03KT CAVOK
BECMG 0610/0612 25012KT



MET'MAP, your aeronautical weather chart ! - Copyright ORBIFLY December 2007 - Disclaimer

ORBIFLY MET'MAP TEAM :

Programming & Development : Alexandra Zaïnal
Concept & original design : Baudouin d'Aumeries
Assistance for programming : Marc-Olivier Méhu
Technical & hardware support : Manuel Goepfert

Contact : metmap@orbifly.com




SOURCES & CREDITS :

   NOAA